createdAt,value
2023-05-08T00:02:13.873Z,84.89
2023-05-08T00:04:40.299Z,84.88
2023-05-08T00:07:06.895Z,84.91
2023-05-08T00:09:33.234Z,84.89
2023-05-08T00:11:59.575Z,84.91
2023-05-08T00:14:25.903Z,84.86
2023-05-08T00:16:52.287Z,84.85
2023-05-08T00:19:18.663Z,84.89
2023-05-08T00:21:45.055Z,84.89
2023-05-08T00:24:11.386Z,84.88
2023-05-08T00:26:37.740Z,84.89
2023-05-08T00:29:06.024Z,84.88
2023-05-08T00:31:32.976Z,84.91
2023-05-08T00:33:59.328Z,84.85
2023-05-08T00:36:25.877Z,84.84
2023-05-08T00:38:52.207Z,84.85
2023-05-08T00:41:18.758Z,84.86
2023-05-08T00:43:45.080Z,84.86
2023-05-08T00:46:11.428Z,84.86
2023-05-08T00:48:37.818Z,84.87
2023-05-08T00:51:04.381Z,84.84
2023-05-08T00:53:30.712Z,84.90
2023-05-08T00:55:57.033Z,84.89
2023-05-08T00:58:23.394Z,84.89
2023-05-08T01:00:49.752Z,84.88
2023-05-08T01:03:16.421Z,84.87
2023-05-08T01:05:42.828Z,84.89
2023-05-08T01:08:09.382Z,84.91
2023-05-08T01:10:35.708Z,84.92
2023-05-08T01:13:02.317Z,84.90
2023-05-08T01:15:28.882Z,84.89
2023-05-08T01:17:55.263Z,84.92
2023-05-08T01:20:21.634Z,84.90
2023-05-08T01:22:48.109Z,84.92
2023-05-08T01:25:14.685Z,84.94
2023-05-08T01:27:41.031Z,84.86
2023-05-08T01:30:07.601Z,84.81
2023-05-08T01:32:33.987Z,84.89
2023-05-08T01:35:00.344Z,84.92
2023-05-08T01:37:26.694Z,84.91
2023-05-08T01:39:53.238Z,84.91
2023-05-08T01:42:19.575Z,84.91
2023-05-08T01:44:45.897Z,84.90
2023-05-08T01:47:12.240Z,84.88
2023-05-08T01:49:38.586Z,84.91
2023-05-08T01:52:05.141Z,84.89
2023-05-08T01:54:31.690Z,84.90
2023-05-08T01:56:59.314Z,84.91
2023-05-08T01:59:25.686Z,84.88
2023-05-08T02:01:52.038Z,84.92
2023-05-08T02:04:18.428Z,84.96
2023-05-08T02:06:44.804Z,84.88
2023-05-08T02:09:11.276Z,84.91
2023-05-08T02:11:37.635Z,84.94
2023-05-08T02:14:04.213Z,84.94
2023-05-08T02:16:30.827Z,84.94
2023-05-08T02:18:57.229Z,84.94
2023-05-08T02:21:23.592Z,84.94
2023-05-08T02:23:49.961Z,84.95
2023-05-08T02:26:16.544Z,84.93
2023-05-08T02:28:42.919Z,84.91
2023-05-08T02:31:09.292Z,84.95
2023-05-08T02:33:35.871Z,84.93
2023-05-08T02:36:02.678Z,84.94
2023-05-08T02:38:29.074Z,84.90
2023-05-08T02:40:55.429Z,84.91
2023-05-08T02:43:21.773Z,84.95
2023-05-08T02:45:48.151Z,84.94
2023-05-08T02:48:14.520Z,84.93
2023-05-08T02:50:41.101Z,84.91
2023-05-08T02:53:07.446Z,84.92
2023-05-08T02:55:33.813Z,84.94
2023-05-08T02:58:00.162Z,84.91
2023-05-08T03:00:26.517Z,84.96
2023-05-08T03:02:53.019Z,84.91
2023-05-08T03:05:19.506Z,84.90
2023-05-08T03:07:46.075Z,84.90
2023-05-08T03:10:12.628Z,84.94
2023-05-08T03:12:41.334Z,84.89
2023-05-08T03:15:09.190Z,84.95
2023-05-08T03:17:35.540Z,84.96
2023-05-08T03:20:01.920Z,84.90
2023-05-08T03:22:28.261Z,84.92
2023-05-08T03:24:54.822Z,84.90
2023-05-08T03:27:21.172Z,84.93
2023-05-08T03:29:47.528Z,84.91
2023-05-08T03:32:13.884Z,84.91
2023-05-08T03:34:40.238Z,84.91
2023-05-08T03:37:06.593Z,84.92
2023-05-08T03:39:32.976Z,84.94
2023-05-08T03:41:59.318Z,84.93
2023-05-08T03:44:25.879Z,84.87
2023-05-08T03:46:52.348Z,84.89
2023-05-08T03:49:18.778Z,84.92
2023-05-08T03:51:45.127Z,84.90
2023-05-08T03:54:11.467Z,84.94
2023-05-08T03:56:37.819Z,84.90
2023-05-08T03:59:04.183Z,84.90
2023-05-08T04:01:30.539Z,84.88
2023-05-08T04:03:57.065Z,84.91
2023-05-08T04:06:23.486Z,84.91
2023-05-08T04:08:50.730Z,84.93
2023-05-08T04:11:17.082Z,84.93
2023-05-08T04:13:43.659Z,84.90
2023-05-08T04:16:10.112Z,84.88
2023-05-08T04:18:36.541Z,84.87
2023-05-08T04:21:02.886Z,84.93
2023-05-08T04:23:29.428Z,84.94
2023-05-08T04:25:55.777Z,84.94
2023-05-08T04:28:22.118Z,84.88
2023-05-08T04:30:48.463Z,84.93
2023-05-08T04:33:14.821Z,84.93
2023-05-08T04:35:41.196Z,84.94
2023-05-08T04:38:07.545Z,84.93
2023-05-08T04:40:34.089Z,84.97
2023-05-08T04:43:00.451Z,84.96
2023-05-08T04:45:26.859Z,84.95
2023-05-08T04:47:53.295Z,84.95
2023-05-08T04:50:19.691Z,84.97
2023-05-08T04:52:46.046Z,84.94
2023-05-08T04:55:12.633Z,84.96
2023-05-08T04:57:39.223Z,85.00
2023-05-08T05:00:05.586Z,84.94
2023-05-08T05:02:32.212Z,84.99
2023-05-08T05:04:58.571Z,84.94
2023-05-08T05:07:24.916Z,84.97
2023-05-08T05:09:51.520Z,84.98
2023-05-08T05:12:17.866Z,85.02
2023-05-08T05:14:44.206Z,84.97
2023-05-08T05:17:10.573Z,84.99
2023-05-08T05:19:36.925Z,84.99
2023-05-08T05:22:03.270Z,85.02
2023-05-08T05:24:29.611Z,84.99
2023-05-08T05:26:55.995Z,85.02
2023-05-08T05:29:22.375Z,85.03
2023-05-08T05:31:48.752Z,85.06
2023-05-08T05:34:15.149Z,85.05
2023-05-08T05:36:41.490Z,85.01
2023-05-08T05:39:07.835Z,85.07
2023-05-08T05:41:34.431Z,85.08
2023-05-08T05:44:00.813Z,85.07
2023-05-08T05:46:27.193Z,85.12
2023-05-08T05:48:53.556Z,85.11
2023-05-08T05:51:19.885Z,85.11
2023-05-08T05:53:46.244Z,85.13
2023-05-08T05:56:12.599Z,85.12
2023-05-08T05:58:38.942Z,85.16
2023-05-08T06:01:05.306Z,85.18
2023-05-08T06:03:31.699Z,85.16
2023-05-08T06:05:58.114Z,85.15
2023-05-08T06:08:24.457Z,85.15
2023-05-08T06:10:50.808Z,85.18
2023-05-08T06:13:17.228Z,85.21
2023-05-08T06:15:43.622Z,85.19
2023-05-08T06:18:12.970Z,85.21
2023-05-08T06:20:39.372Z,85.23
2023-05-08T06:23:05.740Z,85.20
2023-05-08T06:25:32.087Z,85.19
2023-05-08T06:27:58.909Z,85.17
2023-05-08T06:30:25.289Z,85.15
2023-05-08T06:32:51.692Z,85.24
2023-05-08T06:35:18.061Z,85.18
2023-05-08T06:37:44.387Z,85.15
2023-05-08T06:40:13.964Z,85.18
2023-05-08T06:42:40.354Z,85.14
2023-05-08T06:45:06.712Z,85.11
2023-05-08T06:47:33.103Z,85.13
2023-05-08T06:49:59.540Z,85.12
2023-05-08T06:52:25.995Z,85.09
2023-05-08T06:54:53.096Z,85.07
2023-05-08T06:57:19.477Z,85.06
2023-05-08T06:59:45.843Z,85.04
2023-05-08T07:02:12.224Z,85.05
2023-05-08T07:04:38.654Z,85.05
2023-05-08T07:07:05.077Z,85.03
2023-05-08T07:09:31.422Z,84.99
2023-05-08T07:11:57.769Z,85.04
2023-05-08T07:14:24.101Z,85.03
2023-05-08T07:16:53.554Z,85.13
2023-05-08T07:19:21.770Z,85.16
2023-05-08T07:21:49.010Z,85.14
2023-05-08T07:24:15.402Z,85.13
2023-05-08T07:26:42.798Z,85.13
2023-05-08T07:31:56.509Z,85.12
2023-05-08T07:34:22.921Z,85.08
2023-05-08T07:36:49.295Z,85.05
2023-05-08T07:39:15.694Z,85.07
2023-05-08T07:41:42.098Z,85.08
2023-05-08T07:44:08.515Z,85.09
2023-05-08T07:46:34.965Z,85.12
2023-05-08T07:49:01.334Z,85.13
2023-05-08T07:51:27.688Z,85.09
2023-05-08T07:53:54.037Z,85.11
2023-05-08T07:56:20.395Z,85.15
2023-05-08T07:58:46.734Z,85.17
2023-05-08T08:01:13.123Z,85.20
2023-05-08T08:03:39.613Z,85.24
2023-05-08T08:06:07.298Z,85.16
2023-05-08T08:08:33.648Z,85.23
2023-05-08T08:11:02.250Z,85.39
2023-05-08T08:13:30.470Z,85.40
2023-05-08T08:15:56.866Z,85.47
2023-05-08T08:18:23.236Z,85.34
2023-05-08T08:20:49.601Z,85.51
2023-05-08T08:23:18.766Z,85.63
2023-05-08T08:25:45.128Z,85.73
2023-05-08T08:28:11.710Z,85.50
2023-05-08T08:30:38.064Z,85.49
2023-05-08T08:33:04.815Z,85.59
2023-05-08T08:35:31.685Z,85.78
2023-05-08T08:37:58.032Z,85.59
2023-05-08T08:40:24.401Z,85.46
2023-05-08T08:42:50.802Z,85.42
2023-05-08T08:45:17.479Z,85.44
2023-05-08T08:47:45.261Z,85.69
2023-05-08T08:50:14.168Z,85.62
2023-05-08T08:52:41.032Z,85.55
2023-05-08T08:55:07.389Z,85.84
2023-05-08T08:57:33.790Z,85.87
2023-05-08T09:00:00.186Z,85.70
2023-05-08T09:02:27.700Z,85.54
2023-05-08T09:04:54.117Z,85.48
2023-05-08T09:07:20.538Z,85.71
2023-05-08T09:09:46.990Z,85.67
2023-05-08T09:12:13.388Z,86.01
2023-05-08T09:14:39.996Z,86.11
2023-05-08T09:17:06.330Z,86.20
2023-05-08T09:19:33.109Z,86.08
2023-05-08T09:21:59.463Z,86.27
2023-05-08T09:24:26.070Z,86.21
2023-05-08T09:26:52.944Z,85.87
2023-05-08T09:29:19.295Z,85.93
2023-05-08T09:31:45.669Z,85.90
2023-05-08T09:34:12.046Z,86.00
2023-05-08T09:36:38.446Z,85.87
2023-05-08T09:39:04.816Z,85.86
2023-05-08T09:41:31.180Z,86.01
2023-05-08T09:43:57.531Z,86.24
2023-05-08T09:46:24.095Z,85.77
2023-05-08T09:48:50.638Z,85.70
2023-05-08T09:51:16.994Z,85.92
2023-05-08T09:53:43.377Z,86.01
2023-05-08T09:56:10.534Z,85.94
2023-05-08T09:58:36.882Z,85.93
2023-05-08T10:01:03.280Z,85.71
2023-05-08T10:03:29.738Z,85.56
2023-05-08T10:05:56.112Z,85.63
2023-05-08T10:08:22.470Z,85.60
2023-05-08T10:10:48.811Z,85.49
2023-05-08T10:13:15.219Z,85.51
2023-05-08T10:15:41.572Z,85.44
2023-05-08T10:18:08.021Z,85.39
2023-05-08T10:20:34.400Z,85.32
2023-05-08T10:23:00.749Z,85.29
2023-05-08T10:25:27.094Z,85.28
2023-05-08T10:27:53.415Z,85.24
2023-05-08T10:30:19.771Z,85.18
2023-05-08T10:32:46.187Z,85.22
2023-05-08T10:35:12.571Z,85.19
2023-05-08T10:37:38.937Z,85.13
2023-05-08T10:40:05.265Z,85.16
2023-05-08T10:42:31.606Z,85.13
2023-05-08T10:44:57.965Z,85.07
2023-05-08T10:47:24.349Z,85.09
2023-05-08T10:49:50.744Z,85.11
2023-05-08T10:52:17.095Z,85.10
2023-05-08T10:54:43.464Z,85.14
2023-05-08T10:57:09.835Z,85.16
2023-05-08T10:59:36.420Z,85.14
2023-05-08T11:02:02.802Z,85.18
2023-05-08T11:04:29.364Z,85.18
2023-05-08T11:06:55.794Z,85.16
2023-05-08T11:09:22.248Z,85.27
2023-05-08T11:11:48.643Z,85.29
2023-05-08T11:14:15.262Z,85.41
2023-05-08T11:16:41.707Z,85.45
2023-05-08T11:19:08.087Z,85.38
2023-05-08T11:21:34.455Z,85.28
2023-05-08T11:24:00.803Z,85.22
2023-05-08T11:26:27.148Z,85.21
2023-05-08T11:28:53.511Z,85.25
2023-05-08T11:31:19.951Z,85.34
2023-05-08T11:33:46.347Z,85.35
2023-05-08T11:36:12.693Z,85.37
2023-05-08T11:38:39.050Z,85.31
2023-05-08T11:41:05.635Z,85.31
2023-05-08T11:43:31.999Z,85.30
2023-05-08T11:45:58.361Z,85.40
2023-05-08T11:48:24.718Z,85.36
2023-05-08T11:50:51.060Z,85.26
2023-05-08T11:53:17.401Z,85.35
2023-05-08T11:55:43.754Z,85.37
2023-05-08T11:58:10.094Z,85.26
2023-05-08T12:00:36.450Z,85.17
2023-05-08T12:03:03.019Z,85.23
2023-05-08T12:05:29.489Z,85.17
2023-05-08T12:07:55.860Z,85.30
2023-05-08T12:10:22.197Z,85.25
2023-05-08T12:12:48.791Z,85.23
2023-05-08T12:15:15.310Z,85.24
2023-05-08T12:17:41.890Z,85.14
2023-05-08T12:20:08.378Z,85.22
2023-05-08T12:22:34.744Z,85.26
2023-05-08T12:25:01.092Z,85.27
2023-05-08T12:27:27.454Z,85.22
2023-05-08T12:29:53.809Z,85.18
2023-05-08T12:32:20.169Z,85.47
2023-05-08T12:34:46.734Z,85.72
2023-05-08T12:37:13.090Z,85.54
2023-05-08T12:39:39.423Z,85.35
2023-05-08T12:42:05.762Z,85.30
2023-05-08T12:44:32.142Z,85.26
2023-05-08T12:46:58.851Z,85.26
2023-05-08T12:49:25.264Z,85.20
2023-05-08T12:51:51.642Z,85.21
2023-05-08T12:54:17.995Z,85.24
2023-05-08T12:56:44.338Z,85.21
2023-05-08T12:59:10.675Z,85.24
2023-05-08T13:01:37.102Z,85.20
2023-05-08T13:04:03.721Z,85.18
2023-05-08T13:06:30.287Z,85.17
2023-05-08T13:08:56.859Z,85.16
2023-05-08T13:11:23.211Z,85.14
2023-05-08T13:13:49.569Z,85.22
2023-05-08T13:16:15.940Z,85.21
2023-05-08T13:18:42.304Z,85.29
2023-05-08T13:21:08.797Z,85.32
2023-05-08T13:23:35.156Z,85.23
2023-05-08T13:26:01.516Z,85.19
2023-05-08T13:28:27.896Z,85.22
2023-05-08T13:30:54.482Z,85.16
2023-05-08T13:33:20.825Z,85.14
2023-05-08T13:35:47.159Z,85.13
2023-05-08T13:38:13.510Z,85.12
2023-05-08T13:40:39.847Z,85.07
2023-05-08T13:43:06.551Z,85.06
2023-05-08T13:45:33.107Z,85.06
2023-05-08T13:47:59.836Z,85.11
2023-05-08T13:50:26.206Z,85.11
2023-05-08T13:52:54.993Z,85.18
2023-05-08T13:55:21.688Z,85.22
2023-05-08T13:57:48.048Z,85.14
2023-05-08T14:00:14.393Z,85.16
2023-05-08T14:02:40.775Z,85.13
2023-05-08T14:05:07.412Z,85.17
2023-05-08T14:07:33.771Z,85.12
2023-05-08T14:10:00.211Z,85.13
2023-05-08T14:12:26.592Z,85.11
2023-05-08T14:14:52.953Z,85.11
2023-05-08T14:17:19.297Z,85.14
2023-05-08T14:19:45.652Z,85.22
2023-05-08T14:22:12.241Z,85.27
2023-05-08T14:24:38.600Z,85.24
2023-05-08T14:27:04.945Z,85.22
2023-05-08T14:29:31.303Z,85.19
2023-05-08T14:31:57.920Z,85.24
2023-05-08T14:34:24.614Z,85.19
2023-05-08T14:36:50.990Z,85.22
2023-05-08T14:39:17.358Z,85.22
2023-05-08T14:41:54.947Z,85.29
2023-05-08T14:44:30.330Z,85.22
2023-05-08T14:46:56.705Z,85.31
2023-05-08T14:52:09.416Z,85.42
2023-05-08T14:54:36.215Z,86.04
2023-05-08T14:57:02.671Z,85.75
2023-05-08T14:59:29.067Z,85.64
2023-05-08T15:01:55.538Z,85.78
2023-05-08T15:04:21.976Z,85.67
2023-05-08T15:06:49.402Z,85.56
2023-05-08T15:09:15.747Z,85.49
2023-05-08T15:11:42.099Z,85.49
2023-05-08T15:14:08.450Z,85.44
2023-05-08T15:16:34.834Z,85.89
2023-05-08T15:19:01.176Z,85.72
2023-05-08T15:21:27.529Z,85.87
2023-05-08T15:23:53.924Z,85.65
2023-05-08T15:26:20.501Z,85.51
2023-05-08T15:28:46.860Z,85.46
2023-05-08T15:31:13.214Z,85.39
2023-05-08T15:33:39.587Z,85.32
2023-05-08T15:36:05.939Z,85.31
2023-05-08T15:38:32.284Z,85.26
2023-05-08T15:40:58.606Z,85.28
2023-05-08T15:43:25.205Z,85.31
2023-05-08T15:45:51.618Z,85.27
2023-05-08T15:48:17.987Z,85.19
2023-05-08T15:50:44.335Z,85.23
2023-05-08T15:53:10.673Z,85.21
2023-05-08T15:55:37.012Z,85.18
2023-05-08T15:58:03.380Z,85.19
2023-05-08T16:00:36.951Z,85.20
2023-05-08T16:03:10.750Z,85.38
2023-05-08T16:05:37.321Z,85.33
2023-05-08T16:08:03.669Z,85.24
2023-05-08T16:10:30.256Z,85.16
2023-05-08T16:12:56.617Z,85.19
2023-05-08T16:15:23.010Z,85.15
2023-05-08T16:17:49.451Z,85.16
2023-05-08T16:20:15.822Z,85.14
2023-05-08T16:22:42.174Z,85.13
2023-05-08T16:25:08.526Z,85.13
2023-05-08T16:27:35.125Z,85.10
2023-05-08T16:30:01.653Z,85.14
2023-05-08T16:32:28.138Z,85.16
2023-05-08T16:34:54.495Z,85.13
2023-05-08T16:37:20.864Z,85.11
2023-05-08T16:39:47.236Z,85.10
2023-05-08T16:42:13.612Z,85.11
2023-05-08T16:44:39.971Z,85.08
2023-05-08T16:47:06.465Z,85.06
2023-05-08T16:49:33.092Z,85.09
2023-05-08T16:51:59.439Z,85.08
2023-05-08T16:54:25.789Z,85.10
2023-05-08T16:56:52.143Z,85.07
2023-05-08T16:59:18.561Z,85.08
2023-05-08T17:01:44.957Z,85.05
2023-05-08T17:04:11.368Z,85.10
2023-05-08T17:06:37.746Z,85.13
2023-05-08T17:09:04.082Z,85.13
2023-05-08T17:11:30.440Z,85.17
2023-05-08T17:13:57.017Z,85.13
2023-05-08T17:16:23.511Z,85.09
2023-05-08T17:18:49.914Z,85.13
2023-05-08T17:21:16.297Z,85.12
2023-05-08T17:23:42.660Z,85.18
2023-05-08T17:26:09.058Z,85.14
2023-05-08T17:28:35.423Z,85.12
2023-05-08T17:31:01.832Z,85.14
2023-05-08T17:33:28.211Z,85.09
2023-05-08T17:35:54.561Z,85.08
2023-05-08T17:38:21.156Z,85.12
2023-05-08T17:40:47.522Z,85.11
2023-05-08T17:43:13.867Z,85.08
2023-05-08T17:45:40.496Z,85.09
2023-05-08T17:48:06.987Z,85.07
2023-05-08T17:50:33.414Z,85.09
2023-05-08T17:52:59.777Z,85.10
2023-05-08T17:55:26.133Z,85.10
2023-05-08T17:57:52.463Z,85.08
2023-05-08T18:00:18.804Z,85.10
2023-05-08T18:02:45.253Z,85.07
2023-05-08T18:05:11.757Z,85.05
2023-05-08T18:07:38.119Z,85.06
2023-05-08T18:10:04.465Z,85.05
2023-05-08T18:12:30.797Z,85.07
2023-05-08T18:14:57.139Z,85.07
2023-05-08T18:17:23.509Z,85.05
2023-05-08T18:19:49.875Z,85.07
2023-05-08T18:22:16.253Z,85.05
2023-05-08T18:24:42.802Z,85.07
2023-05-08T18:27:09.153Z,85.09
2023-05-08T18:29:35.518Z,85.10
2023-05-08T18:32:01.887Z,85.07
2023-05-08T18:34:28.254Z,85.09
2023-05-08T18:36:56.126Z,85.06
2023-05-08T18:39:24.413Z,85.09
2023-05-08T18:41:51.032Z,85.11
2023-05-08T18:44:17.369Z,85.06
2023-05-08T18:46:43.760Z,85.08
2023-05-08T18:49:10.099Z,85.06
2023-05-08T18:51:36.436Z,85.09
2023-05-08T18:54:02.764Z,85.10
2023-05-08T18:56:29.123Z,85.11
2023-05-08T18:58:55.714Z,85.09
2023-05-08T19:01:22.111Z,85.08
2023-05-08T19:03:48.612Z,85.10
2023-05-08T19:06:15.065Z,85.06
2023-05-08T19:08:41.423Z,85.07
2023-05-08T19:11:07.764Z,85.10
2023-05-08T19:13:34.176Z,85.09
2023-05-08T19:16:00.589Z,85.13
2023-05-08T19:18:26.980Z,85.08
2023-05-08T19:20:53.606Z,85.07
2023-05-08T19:23:19.997Z,85.09
2023-05-08T19:25:46.351Z,85.08
2023-05-08T19:28:12.735Z,85.11
2023-05-08T19:30:39.126Z,85.08
2023-05-08T19:33:05.532Z,85.09
2023-05-08T19:35:31.895Z,85.08
2023-05-08T19:37:58.234Z,85.08
2023-05-08T19:40:24.591Z,85.13
2023-05-08T19:42:50.959Z,85.11
2023-05-08T19:45:17.560Z,85.11
2023-05-08T19:47:43.940Z,85.10
2023-05-08T19:50:10.294Z,85.08
2023-05-08T19:52:36.643Z,85.11
2023-05-08T19:55:03.011Z,85.11
2023-05-08T19:57:29.373Z,85.14
2023-05-08T19:59:55.738Z,85.11
2023-05-08T20:02:22.346Z,85.13
2023-05-08T20:05:14.355Z,85.13
2023-05-08T20:07:35.286Z,85.08
2023-05-08T20:10:01.660Z,85.08
2023-05-08T20:12:28.002Z,85.10
2023-05-08T20:14:54.368Z,85.08
2023-05-08T20:17:20.752Z,85.08
2023-05-08T20:19:47.203Z,85.08
2023-05-08T20:22:13.594Z,85.11
2023-05-08T20:24:39.926Z,85.11
2023-05-08T20:27:06.313Z,85.11
2023-05-08T20:29:32.665Z,85.09
2023-05-08T20:31:59.073Z,85.07
2023-05-08T20:34:25.714Z,85.11
2023-05-08T20:36:52.073Z,85.13
2023-05-08T20:39:18.454Z,85.09
2023-05-08T20:41:44.857Z,85.11
2023-05-08T20:44:11.235Z,85.08
2023-05-08T20:46:37.607Z,85.11
2023-05-08T20:49:03.981Z,85.12
2023-05-08T20:51:30.601Z,85.19
2023-05-08T20:53:56.926Z,85.23
2023-05-08T20:56:23.256Z,85.21
2023-05-08T20:58:49.620Z,85.24
2023-05-08T21:01:16.961Z,85.23
2023-05-08T21:03:44.900Z,85.25
2023-05-08T21:06:11.221Z,85.24
2023-05-08T21:08:37.835Z,85.29
2023-05-08T21:11:04.158Z,85.25
2023-05-08T21:13:30.527Z,85.22
2023-05-08T21:15:56.869Z,85.22
2023-05-08T21:18:23.268Z,85.21
2023-05-08T21:20:49.646Z,85.21
2023-05-08T21:23:15.990Z,85.18
2023-05-08T21:25:42.350Z,85.19
2023-05-08T21:28:08.689Z,85.21
2023-05-08T21:30:35.285Z,85.21
2023-05-08T21:33:01.689Z,85.23
2023-05-08T21:35:28.107Z,85.18
2023-05-08T21:37:54.849Z,85.17
2023-05-08T21:40:21.242Z,85.19
2023-05-08T21:42:47.608Z,85.13
2023-05-08T21:45:14.205Z,85.19
2023-05-08T21:47:40.961Z,85.21
2023-05-08T21:50:07.309Z,85.19
2023-05-08T21:52:33.662Z,85.18
2023-05-08T21:55:00.035Z,85.18
2023-05-08T21:57:26.387Z,85.16
2023-05-08T21:59:52.782Z,85.12
2023-05-08T22:02:19.191Z,85.16
2023-05-08T22:04:45.584Z,85.13
2023-05-08T22:07:11.922Z,85.16
2023-05-08T22:09:38.255Z,85.15
2023-05-08T22:12:04.583Z,85.19
2023-05-08T22:14:30.932Z,85.18
2023-05-08T22:16:57.268Z,85.16
2023-05-08T22:19:23.630Z,85.16
2023-05-08T22:21:49.956Z,85.13
2023-05-08T22:24:16.513Z,85.15
2023-05-08T22:26:42.876Z,85.13
2023-05-08T22:29:09.477Z,85.16
2023-05-08T22:31:35.849Z,85.19
2023-05-08T22:34:02.235Z,85.21
2023-05-08T22:36:28.603Z,85.19
2023-05-08T22:38:54.973Z,85.22
2023-05-08T22:41:21.309Z,85.24
2023-05-08T22:43:47.653Z,85.19
2023-05-08T22:46:14.154Z,85.22
2023-05-08T22:48:40.815Z,85.19
2023-05-08T22:51:07.412Z,85.19
2023-05-08T22:53:33.761Z,85.19
2023-05-08T22:56:00.112Z,85.22
2023-05-08T22:58:26.503Z,85.24
2023-05-08T23:00:52.863Z,85.25
2023-05-08T23:03:19.228Z,85.22
2023-05-08T23:05:45.582Z,85.25
2023-05-08T23:08:12.234Z,85.28
2023-05-08T23:10:38.588Z,85.29
2023-05-08T23:13:04.973Z,85.27
2023-05-08T23:15:31.336Z,85.29
2023-05-08T23:17:57.696Z,85.31
2023-05-08T23:20:24.073Z,85.29
2023-05-08T23:22:50.412Z,85.25
2023-05-08T23:25:17.151Z,85.25
2023-05-08T23:27:43.592Z,85.25
2023-05-08T23:30:09.937Z,85.31
2023-05-08T23:32:36.324Z,85.36
2023-05-08T23:35:02.679Z,85.41
2023-05-08T23:37:29.239Z,85.44
2023-05-08T23:39:55.585Z,85.44
2023-05-08T23:42:21.929Z,85.43
2023-05-08T23:44:48.288Z,85.40
2023-05-08T23:47:14.652Z,85.51
2023-05-08T23:49:41.016Z,85.51
2023-05-08T23:52:07.370Z,85.60
2023-05-08T23:54:33.954Z,85.61
2023-05-08T23:57:00.314Z,85.63
2023-05-08T23:59:26.674Z,85.53
